Time;durP1;ratioP1;P1;durP2;ratioP2;P2;SDS_P1;SDS_P2;PMS_P1;PMS_P2;Temp;Humidity;BMP_temperature;BMP_pressure;BME280_temperature;BME280_humidity;BME280_pressure;Samples;Min_cycle;Max_cycle;Signal;HPM_P1;HPM_P2
2021/11/01 00:01:36;;;;;;;15.63;14.03;;;13.20;99.90;;;;;;5025702;28;20246;-72
2021/11/01 00:04:03;;;;;;;16.03;14.43;;;13.20;99.90;;;;;;5025663;28;20217;-72
2021/11/01 00:06:30;;;;;;;16.33;14.47;;;13.20;99.90;;;;;;5024425;28;20209;-72
2021/11/01 00:08:59;;;;;;;15.70;14.10;;;13.20;99.90;;;;;;5027128;28;20229;-73
2021/11/01 00:11:27;;;;;;;16.00;14.30;;;13.20;99.90;;;;;;5043936;28;20246;-73
2021/11/01 00:13:53;;;;;;;15.57;14.03;;;13.20;99.90;;;;;;5044326;28;20593;-73
2021/11/01 00:16:20;;;;;;;16.53;14.70;;;13.20;99.90;;;;;;5045035;28;20236;-73
2021/11/01 00:18:47;;;;;;;16.80;14.00;;;13.20;99.90;;;;;;5044871;28;20204;-73
2021/11/01 00:21:14;;;;;;;15.77;14.23;;;13.10;99.90;;;;;;5045315;28;20652;-72
2021/11/01 00:23:41;;;;;;;18.37;14.67;;;13.10;99.90;;;;;;5044987;28;21014;-72
2021/11/01 00:26:08;;;;;;;16.53;14.57;;;13.10;99.90;;;;;;5045373;28;20204;-73
2021/11/01 00:28:36;;;;;;;17.13;14.40;;;13.00;99.90;;;;;;5045241;28;20208;-72
2021/11/01 00:31:03;;;;;;;17.13;15.33;;;13.00;99.90;;;;;;5048823;28;20212;-73
2021/11/01 00:33:29;;;;;;;17.10;14.47;;;13.00;99.90;;;;;;5048611;28;20244;-73
2021/11/01 00:35:57;;;;;;;16.10;14.60;;;13.00;99.90;;;;;;5049074;28;20235;-73
2021/11/01 00:38:24;;;;;;;16.67;14.87;;;13.00;99.90;;;;;;5048339;28;20315;-73
2021/11/01 00:40:51;;;;;;;18.43;14.90;;;13.00;99.90;;;;;;5048227;28;20232;-73
2021/11/01 00:43:17;;;;;;;18.50;15.20;;;12.90;99.90;;;;;;5048591;28;20212;-72
2021/11/01 00:45:45;;;;;;;16.63;14.33;;;12.90;99.90;;;;;;5048361;28;20253;-72
2021/11/01 00:48:12;;;;;;;18.73;14.87;;;12.90;99.90;;;;;;5048642;28;20261;-72
2021/11/01 00:50:39;;;;;;;17.50;15.73;;;12.80;99.90;;;;;;5048257;28;20658;-73
2021/11/01 00:53:07;;;;;;;16.50;14.97;;;12.90;99.90;;;;;;5048149;28;20200;-74
2021/11/01 00:55:36;;;;;;;16.53;14.80;;;12.90;99.90;;;;;;5047984;28;20287;-74
2021/11/01 00:58:03;;;;;;;19.23;15.87;;;12.80;99.90;;;;;;5048187;28;20233;-74
2021/11/01 01:00:31;;;;;;;16.47;14.60;;;12.80;99.90;;;;;;5047725;28;20280;-74
2021/11/01 01:02:59;;;;;;;16.53;14.73;;;12.70;99.90;;;;;;5048297;28;20208;-74
2021/11/01 01:05:25;;;;;;;16.37;14.77;;;12.70;99.90;;;;;;5048107;27;20214;-74
2021/11/01 01:07:53;;;;;;;16.97;15.17;;;12.70;99.90;;;;;;5048435;28;20220;-74
2021/11/01 01:10:19;;;;;;;17.23;15.40;;;12.70;99.90;;;;;;5048287;28;20204;-74
2021/11/01 01:12:46;;;;;;;17.27;15.47;;;12.70;99.90;;;;;;5048116;28;20296;-74
2021/11/01 01:15:19;;;;;;;17.33;15.63;;;12.70;99.90;;;;;;5048032;28;20240;-74
2021/11/01 01:17:47;;;;;;;17.23;15.40;;;12.70;99.90;;;;;;5047775;28;20307;-74
2021/11/01 01:20:17;;;;;;;16.63;14.90;;;12.70;99.90;;;;;;5048208;28;20462;-74
2021/11/01 01:22:45;;;;;;;16.83;15.07;;;12.70;99.90;;;;;;5047992;28;20203;-74
2021/11/01 01:25:29;;;;;;;17.50;15.63;;;12.60;99.90;;;;;;5047971;28;20224;-74
2021/11/01 01:27:56;;;;;;;17.57;15.77;;;12.60;99.90;;;;;;5049385;27;20300;-74
2021/11/01 01:30:24;;;;;;;17.10;15.27;;;12.60;99.90;;;;;;5047657;28;20254;-72
2021/11/01 01:32:52;;;;;;;16.87;15.17;;;12.60;99.90;;;;;;5047671;28;20208;-71
2021/11/01 01:35:20;;;;;;;17.83;15.93;;;12.60;99.90;;;;;;5048023;28;20260;-71
2021/11/01 01:37:47;;;;;;;17.57;15.77;;;12.50;99.90;;;;;;5047518;28;20292;-71
2021/11/01 01:40:16;;;;;;;16.90;15.10;;;12.50;99.90;;;;;;5046777;28;20246;-71
2021/11/01 01:42:43;;;;;;;17.63;15.83;;;12.50;99.90;;;;;;5047237;28;20669;-71
2021/11/01 01:45:11;;;;;;;17.03;15.33;;;12.50;99.90;;;;;;5047760;28;20628;-71
2021/11/01 01:47:40;;;;;;;17.13;15.33;;;12.50;99.90;;;;;;5047302;28;20722;-71
2021/11/01 01:50:08;;;;;;;16.10;14.43;;;12.50;99.90;;;;;;5047598;28;20204;-71
2021/11/01 01:52:36;;;;;;;16.97;15.23;;;12.50;99.90;;;;;;5047407;28;20597;-71
2021/11/01 01:55:05;;;;;;;18.47;15.27;;;12.50;99.90;;;;;;5047481;28;20269;-71
2021/11/01 01:57:32;;;;;;;16.63;14.97;;;12.40;99.90;;;;;;5047117;28;20267;-72
2021/11/01 01:59:58;;;;;;;17.23;15.43;;;12.40;99.90;;;;;;5047704;28;20240;-72
2021/11/01 02:02:25;;;;;;;17.63;15.60;;;12.40;99.90;;;;;;5047552;28;20204;-72
2021/11/01 02:04:52;;;;;;;17.73;15.37;;;12.40;99.90;;;;;;5047113;28;20212;-72
2021/11/01 02:07:26;;;;;;;16.80;15.20;;;12.40;99.90;;;;;;5047372;28;20208;-71
2021/11/01 02:10:00;;;;;;;16.77;15.00;;;12.30;99.90;;;;;;5047408;28;20210;-72
2021/11/01 02:12:31;;;;;;;16.47;14.77;;;12.40;99.90;;;;;;5046719;28;20249;-71
2021/11/01 02:15:02;;;;;;;17.63;15.80;;;12.40;99.90;;;;;;5034659;28;20224;-71
2021/11/01 02:17:31;;;;;;;17.00;15.20;;;12.30;99.90;;;;;;5027154;28;20217;-71
2021/11/01 02:20:02;;;;;;;16.73;15.13;;;12.40;99.90;;;;;;5026808;28;20770;-71
2021/11/01 02:22:38;;;;;;;19.07;15.93;;;12.30;99.90;;;;;;5027305;28;20192;-71
2021/11/01 02:25:08;;;;;;;19.07;15.60;;;12.20;99.90;;;;;;5027452;28;20833;-71
2021/11/01 02:27:38;;;;;;;17.17;15.57;;;12.30;99.90;;;;;;5027018;28;20205;-75
2021/11/01 02:30:07;;;;;;;18.70;15.80;;;12.20;99.90;;;;;;5027118;28;20250;-75
2021/11/01 02:32:36;;;;;;;17.70;15.87;;;12.20;99.90;;;;;;5027235;28;20265;-75
2021/11/01 02:35:04;;;;;;;17.37;15.50;;;12.20;99.90;;;;;;5026757;28;20205;-75
2021/11/01 02:37:31;;;;;;;17.43;15.73;;;12.20;99.90;;;;;;5026850;28;20267;-72
2021/11/01 02:39:58;;;;;;;18.23;16.33;;;12.20;99.90;;;;;;5026658;28;20293;-72
2021/11/01 02:42:27;;;;;;;17.90;15.50;;;12.20;99.90;;;;;;5026915;28;21050;-73
2021/11/01 02:44:58;;;;;;;18.13;15.93;;;12.20;99.90;;;;;;5027030;28;20274;-73
2021/11/01 02:47:26;;;;;;;20.07;15.83;;;12.20;99.90;;;;;;5026930;28;20333;-73
2021/11/01 02:49:53;;;;;;;18.80;15.63;;;12.10;99.90;;;;;;5026407;28;20231;-73
2021/11/01 02:52:20;;;;;;;17.93;16.03;;;12.20;99.90;;;;;;5026415;28;20201;-73
2021/11/01 02:54:48;;;;;;;18.30;16.40;;;12.10;99.90;;;;;;5026605;28;20204;-73
2021/11/01 02:57:16;;;;;;;17.40;15.53;;;12.10;99.90;;;;;;5026575;28;20285;-73
2021/11/01 02:59:43;;;;;;;17.60;15.70;;;12.10;99.90;;;;;;5026150;28;20233;-73
2021/11/01 03:02:11;;;;;;;18.17;16.37;;;12.00;99.90;;;;;;5026435;28;20257;-73
2021/11/01 03:04:38;;;;;;;16.77;14.97;;;12.00;99.90;;;;;;5026528;28;20201;-73
2021/11/01 03:07:07;;;;;;;18.33;16.37;;;11.90;99.90;;;;;;5026593;28;20216;-73
2021/11/01 03:09:37;;;;;;;17.47;15.77;;;11.90;99.90;;;;;;5026276;28;20200;-73
2021/11/01 03:12:08;;;;;;;19.67;15.87;;;11.90;99.90;;;;;;5026493;28;20201;-73
2021/11/01 03:14:44;;;;;;;17.47;15.63;;;11.90;99.90;;;;;;5026063;28;20972;-72
2021/11/01 03:17:18;;;;;;;19.13;15.67;;;11.80;99.90;;;;;;5024986;28;20320;-72
2021/11/01 03:19:48;;;;;;;19.10;16.07;;;11.80;99.90;;;;;;5026516;28;20193;-72
2021/11/01 03:22:17;;;;;;;17.43;15.67;;;11.80;99.90;;;;;;5026481;28;20193;-72
2021/11/01 03:24:55;;;;;;;18.40;16.50;;;11.80;99.90;;;;;;5026311;28;20213;-72
2021/11/01 03:27:23;;;;;;;20.60;16.27;;;11.80;99.90;;;;;;5025850;28;20201;-73
2021/11/01 03:29:51;;;;;;;17.20;15.33;;;11.80;99.90;;;;;;5025736;28;20209;-71
2021/11/01 03:32:19;;;;;;;19.07;16.10;;;11.80;99.90;;;;;;5026112;28;20579;-70
2021/11/01 03:34:47;;;;;;;17.90;15.93;;;11.70;99.90;;;;;;5025619;28;20217;-71
2021/11/01 03:37:16;;;;;;;17.77;15.87;;;11.70;99.90;;;;;;5029515;28;20247;-72
2021/11/01 03:39:44;;;;;;;17.80;15.90;;;11.70;99.90;;;;;;5043600;28;20280;-71
2021/11/01 03:42:12;;;;;;;16.90;14.90;;;11.70;99.90;;;;;;5043852;28;20215;-71
2021/11/01 03:44:44;;;;;;;17.77;15.87;;;11.70;99.90;;;;;;5043623;28;20204;-72
2021/11/01 03:47:12;;;;;;;18.00;15.90;;;11.70;99.90;;;;;;5044101;28;20253;-72
2021/11/01 03:49:50;;;;;;;17.40;15.53;;;11.70;99.90;;;;;;5043812;28;20670;-72
2021/11/01 03:52:21;;;;;;;18.87;16.20;;;11.70;99.90;;;;;;5044195;28;20829;-75
2021/11/01 03:54:48;;;;;;;18.33;16.43;;;11.60;99.90;;;;;;5043738;28;20227;-75
2021/11/01 03:57:15;;;;;;;18.37;16.43;;;11.70;99.90;;;;;;5043180;28;20232;-75
2021/11/01 03:59:42;;;;;;;19.73;16.87;;;11.70;99.90;;;;;;5042927;28;20609;-71
2021/11/01 04:02:13;;;;;;;19.07;17.07;;;11.70;99.90;;;;;;5043426;28;20212;-72
2021/11/01 04:04:40;;;;;;;17.93;15.50;;;11.70;99.90;;;;;;5042712;28;20196;-71
2021/11/01 04:07:08;;;;;;;18.63;16.50;;;11.60;99.90;;;;;;5043320;28;20624;-71
2021/11/01 04:09:34;;;;;;;18.57;16.47;;;11.60;99.90;;;;;;5042398;28;20212;-71
2021/11/01 04:12:01;;;;;;;25.20;17.47;;;11.60;99.90;;;;;;5026307;28;20237;-71
2021/11/01 04:14:29;;;;;;;19.40;16.57;;;11.60;99.90;;;;;;5024123;28;20209;-71
2021/11/01 04:17:00;;;;;;;19.40;17.40;;;11.60;99.90;;;;;;5024471;28;20319;-71
2021/11/01 04:19:45;;;;;;;19.13;16.43;;;11.50;99.90;;;;;;5025342;28;20205;-71
2021/11/01 04:22:13;;;;;;;19.80;17.80;;;11.60;99.90;;;;;;5025609;28;20197;-71
2021/11/01 04:24:40;;;;;;;20.30;17.17;;;11.50;99.90;;;;;;5024951;28;20778;-71
2021/11/01 04:27:07;;;;;;;20.73;17.17;;;11.50;99.90;;;;;;5025500;28;20208;-71
2021/11/01 04:29:34;;;;;;;20.63;16.67;;;11.50;99.90;;;;;;5025248;28;20262;-70
2021/11/01 04:32:19;;;;;;;17.97;16.13;;;11.50;99.90;;;;;;5025271;28;20214;-71
2021/11/01 04:34:49;;;;;;;18.90;16.80;;;11.50;99.90;;;;;;5025089;28;20203;-70
2021/11/01 04:37:18;;;;;;;19.03;17.07;;;11.50;99.90;;;;;;5025069;28;20240;-70
2021/11/01 04:39:58;;;;;;;18.60;16.70;;;11.50;99.90;;;;;;5024733;28;20597;-71
2021/11/01 04:42:47;;;;;;;19.90;16.83;;;11.50;99.90;;;;;;5024800;28;20254;-70
2021/11/01 04:53:33;;;;;;;18.80;16.80;;;11.60;99.90;;;;;;5024505;28;20216;-70
2021/11/01 04:56:00;;;;;;;17.73;15.90;;;11.60;99.90;;;;;;5024619;28;20217;-70
2021/11/01 04:58:27;;;;;;;19.80;17.70;;;11.60;99.90;;;;;;5024300;28;20725;-70
2021/11/01 05:00:54;;;;;;;19.33;17.03;;;11.70;99.90;;;;;;5024664;28;20283;-71
2021/11/01 05:03:32;;;;;;;19.77;17.77;;;11.70;99.90;;;;;;5024936;28;20270;-71
2021/11/01 05:05:59;;;;;;;19.03;17.03;;;11.70;99.90;;;;;;5024797;28;20692;-70
2021/11/01 05:08:32;;;;;;;18.87;16.87;;;11.70;99.90;;;;;;5024783;28;20204;-71
2021/11/01 05:11:05;;;;;;;18.90;16.90;;;11.70;99.90;;;;;;5024917;28;20203;-71
2021/11/01 05:13:35;;;;;;;20.67;17.80;;;11.70;99.90;;;;;;5024778;28;20236;-71
2021/11/01 05:16:08;;;;;;;21.10;17.20;;;11.70;99.90;;;;;;5027154;28;20225;-71
2021/11/01 05:18:38;;;;;;;19.53;17.53;;;11.70;99.90;;;;;;5027993;28;20568;-71
2021/11/01 05:21:19;;;;;;;20.90;17.77;;;11.70;99.90;;;;;;5028268;28;20197;-70
2021/11/01 05:23:52;;;;;;;19.03;17.13;;;11.70;99.90;;;;;;5028010;28;20197;-70
2021/11/01 05:26:27;;;;;;;20.10;17.77;;;11.70;99.90;;;;;;5028042;28;20228;-71
2021/11/01 05:28:58;;;;;;;18.33;16.40;;;11.60;99.90;;;;;;5027775;28;20196;-70
2021/11/01 05:31:27;;;;;;;19.60;17.53;;;11.70;99.90;;;;;;5027945;28;20624;-70
2021/11/01 05:34:00;;;;;;;18.97;16.63;;;11.70;99.90;;;;;;5027573;28;20712;-70
2021/11/01 05:36:28;;;;;;;18.87;16.83;;;11.70;99.90;;;;;;5027941;28;20225;-71
2021/11/01 05:38:54;;;;;;;19.93;17.93;;;11.70;99.90;;;;;;5027679;28;20237;-70
2021/11/01 05:41:22;;;;;;;19.53;17.53;;;11.70;99.90;;;;;;5027335;28;20655;-70
2021/11/01 05:43:49;;;;;;;19.53;17.53;;;11.70;99.90;;;;;;5027124;28;20690;-70
2021/11/01 05:46:17;;;;;;;20.40;17.87;;;11.70;99.90;;;;;;5027359;28;20735;-70
2021/11/01 05:48:49;;;;;;;19.43;17.43;;;11.70;99.90;;;;;;5027465;28;20201;-70
2021/11/01 05:51:17;;;;;;;20.43;17.50;;;11.70;99.90;;;;;;5027707;28;20193;-70
2021/11/01 05:53:46;;;;;;;18.87;16.87;;;11.70;99.90;;;;;;5027007;28;20662;-70
2021/11/01 05:56:23;;;;;;;20.37;17.57;;;11.70;99.90;;;;;;5027252;28;20298;-70
2021/11/01 05:59:02;;;;;;;20.53;18.20;;;11.70;99.90;;;;;;5026514;28;20252;-71
2021/11/01 06:02:03;;;;;;;19.67;17.33;;;11.70;99.90;;;;;;5027039;28;20676;-70
2021/11/01 06:04:41;;;;;;;19.93;17.73;;;11.70;99.90;;;;;;5026772;28;20667;-70
2021/11/01 06:07:19;;;;;;;19.33;16.87;;;11.70;99.90;;;;;;5027207;28;20201;-70
2021/11/01 06:10:01;;;;;;;21.73;17.77;;;11.70;99.90;;;;;;5027469;28;20718;-70
2021/11/01 06:15:14;;;;;;;20.47;17.13;;;11.70;99.90;;;;;;5026821;28;20223;-70
2021/11/01 06:17:42;;;;;;;21.17;18.53;;;11.70;99.90;;;;;;5027056;28;20225;-70
2021/11/01 06:20:10;;;;;;;19.63;17.57;;;11.80;99.90;;;;;;5027208;28;20213;-70
2021/11/01 06:22:37;;;;;;;21.93;18.80;;;11.80;99.90;;;;;;5027065;28;20296;-70
2021/11/01 06:25:06;;;;;;;20.53;18.33;;;11.80;99.90;;;;;;5027000;28;20671;-70
2021/11/01 06:27:35;;;;;;;22.83;17.73;;;11.80;99.90;;;;;;5026165;28;20219;-71
2021/11/01 06:30:11;;;;;;;25.93;18.10;;;11.80;99.90;;;;;;5027228;28;20254;-71
2021/11/01 06:32:43;;;;;;;19.83;17.73;;;11.80;99.90;;;;;;5026990;28;20241;-70
2021/11/01 06:40:51;;;;;;;20.13;17.57;;;11.90;99.90;;;;;;5026463;28;20273;-71
2021/11/01 06:43:20;;;;;;;19.30;17.30;;;11.90;99.90;;;;;;5026426;28;20552;-71
2021/11/01 06:46:19;;;;;;;20.03;17.47;;;12.00;99.90;;;;;;5026589;28;20209;-70
2021/11/01 06:51:41;;;;;;;20.23;18.10;;;12.00;99.90;;;;;;5026565;28;20196;-70
2021/11/01 06:54:24;;;;;;;18.93;17.03;;;11.70;99.90;;;;;;5026702;28;20532;-70
2021/11/01 07:16:05;;;;;;;19.33;16.83;;;11.90;99.90;;;;;;5026122;28;21015;-70
2021/11/01 07:18:36;;;;;;;19.57;17.40;;;11.90;99.90;;;;;;5026430;28;20216;-70
2021/11/01 07:21:19;;;;;;;18.50;16.50;;;12.00;99.90;;;;;;5026040;28;20197;-70
2021/11/01 08:24:33;;;;;;;20.03;17.93;;;12.20;99.90;;;;;;5024649;28;20220;-70
2021/11/01 08:30:07;;;;;;;19.47;17.53;;;12.30;99.90;;;;;;5025101;28;20272;-70
2021/11/01 08:38:16;;;;;;;21.87;18.10;;;12.40;99.90;;;;;;5024714;28;20312;-70
2021/11/01 08:46:35;;;;;;;20.30;18.13;;;12.50;99.90;;;;;;5024780;28;20204;-70
2021/11/01 08:52:06;;;;;;;19.80;17.40;;;12.50;99.90;;;;;;5028339;28;20266;-70
2021/11/01 09:02:53;;;;;;;21.70;17.73;;;12.50;99.90;;;;;;5028151;28;20196;-70
2021/11/01 09:22:18;;;;;;;18.73;16.83;;;12.30;99.90;;;;;;5027441;28;20240;-70
2021/11/01 09:24:47;;;;;;;19.23;17.20;;;12.30;99.90;;;;;;5027932;28;20193;-70
2021/11/01 09:27:18;;;;;;;18.30;16.10;;;12.40;99.90;;;;;;5027567;28;20205;-70
2021/11/01 09:29:55;;;;;;;19.97;16.60;;;12.40;99.90;;;;;;5027969;28;20201;-70
2021/11/01 09:41:03;;;;;;;21.87;15.67;;;12.70;99.90;;;;;;5002577;27;20211;-70
2021/11/01 09:43:31;;;;;;;16.73;14.70;;;12.80;99.90;;;;;;5027620;28;20193;-70
2021/11/01 09:46:00;;;;;;;16.70;14.30;;;12.80;99.90;;;;;;5027680;28;20213;-70
2021/11/01 09:48:29;;;;;;;20.90;16.53;;;12.80;99.90;;;;;;5027708;28;20208;-70
2021/11/01 09:50:56;;;;;;;18.40;15.87;;;12.80;99.90;;;;;;5027335;28;20232;-70
2021/11/01 09:53:25;;;;;;;19.80;16.90;;;12.80;99.90;;;;;;5027307;28;20732;-70
2021/11/01 09:56:05;;;;;;;17.23;14.00;;;12.80;99.90;;;;;;5027348;28;20231;-70
2021/11/01 10:01:20;;;;;;;19.10;14.43;;;12.80;99.90;;;;;;5026357;28;20204;-70
2021/11/01 10:03:53;;;;;;;14.70;12.40;;;12.90;99.90;;;;;;5027475;28;20224;-70
2021/11/01 10:06:22;;;;;;;13.67;12.17;;;12.90;99.90;;;;;;5027632;28;20189;-70
2021/11/01 10:08:50;;;;;;;13.27;11.97;;;12.90;99.90;;;;;;5027322;28;20205;-71
2021/11/01 10:11:18;;;;;;;13.23;11.77;;;13.00;99.90;;;;;;5027239;28;20216;-71
2021/11/01 10:13:47;;;;;;;12.87;11.57;;;13.00;99.90;;;;;;5027083;28;20232;-71
2021/11/01 10:19:14;;;;;;;14.97;12.07;;;12.90;99.90;;;;;;5027224;28;20243;-71
2021/11/01 10:21:52;;;;;;;14.43;11.77;;;12.80;99.90;;;;;;5027231;28;20228;-71
2021/11/01 10:24:25;;;;;;;17.40;12.53;;;12.80;99.90;;;;;;5027073;28;20236;-71
2021/11/01 10:26:52;;;;;;;15.43;12.00;;;12.80;99.90;;;;;;5026908;28;20197;-70
2021/11/01 10:29:19;;;;;;;14.67;12.47;;;12.80;99.90;;;;;;5027102;28;20209;-71
2021/11/01 10:31:47;;;;;;;14.50;12.53;;;12.90;99.90;;;;;;5027034;28;20205;-71
2021/11/01 10:34:15;;;;;;;15.93;12.70;;;12.80;99.90;;;;;;5027081;28;20236;-70
2021/11/01 10:36:45;;;;;;;16.17;12.83;;;12.80;99.90;;;;;;5026776;28;20225;-70
2021/11/01 10:39:17;;;;;;;15.33;12.47;;;12.90;99.90;;;;;;5026924;28;20343;-70
2021/11/01 10:41:48;;;;;;;15.67;12.97;;;12.90;99.90;;;;;;5026536;28;20193;-70
2021/11/01 10:44:44;;;;;;;17.80;13.17;;;12.90;99.90;;;;;;5026641;28;20198;-70
2021/11/01 10:59:02;;;;;;;14.93;10.70;;;13.00;99.90;;;;;;5017430;28;20255;-70
2021/11/01 11:12:34;;;;;;;11.73;10.23;;;13.00;99.90;;;;;;5025587;28;20196;-70
2021/11/01 11:15:08;;;;;;;13.67;9.63;;;12.90;99.90;;;;;;5026453;28;20208;-70
2021/11/01 11:17:42;;;;;;;14.07;10.23;;;13.00;99.90;;;;;;5026569;28;20200;-70
2021/11/01 11:26:06;;;;;;;13.13;9.53;;;12.90;99.90;;;;;;5025974;28;20269;-70
2021/11/01 11:31:45;;;;;;;15.57;10.77;;;12.80;99.90;;;;;;5018845;28;20592;-70
2021/11/01 11:43:11;;;;;;;11.63;9.70;;;12.70;99.90;;;;;;5014674;28;20201;-70
2021/11/01 11:48:33;;;;;;;13.53;10.23;;;12.90;99.90;;;;;;5025741;28;20199;-70
2021/11/01 11:51:06;;;;;;;11.47;9.43;;;12.90;99.90;;;;;;5025849;28;20242;-70
2021/11/01 11:53:33;;;;;;;11.43;10.20;;;12.90;99.90;;;;;;5025762;28;20194;-70
2021/11/01 11:56:07;;;;;;;12.33;10.20;;;13.00;99.90;;;;;;5025335;28;20216;-70
2021/11/01 11:58:35;;;;;;;12.37;10.27;;;12.80;99.90;;;;;;5025434;28;20312;-70
2021/11/01 12:01:19;;;;;;;12.00;10.17;;;12.70;99.90;;;;;;5025771;28;20269;-70
2021/11/01 12:03:45;;;;;;;13.43;10.67;;;12.60;99.90;;;;;;5025640;28;20602;-70
2021/11/01 12:06:14;;;;;;;14.40;10.30;;;12.60;99.90;;;;;;5025640;28;20205;-70
2021/11/01 12:08:44;;;;;;;12.83;10.27;;;12.60;99.90;;;;;;5025554;28;20209;-70
2021/11/01 12:11:28;;;;;;;12.90;9.73;;;12.60;99.90;;;;;;5026024;28;20565;-70
2021/11/01 12:14:21;;;;;;;16.33;10.30;;;12.70;99.90;;;;;;5025101;28;20225;-70
2021/11/01 12:17:11;;;;;;;12.27;10.70;;;12.70;99.90;;;;;;5025391;28;20201;-70
2021/11/01 12:19:38;;;;;;;12.10;10.30;;;12.80;99.90;;;;;;5025279;28;20221;-70
2021/11/01 12:22:11;;;;;;;11.83;10.60;;;12.80;99.90;;;;;;5025345;28;20265;-70
2021/11/01 12:24:38;;;;;;;12.73;10.30;;;12.80;99.90;;;;;;5024516;28;20246;-71
2021/11/01 12:27:09;;;;;;;12.47;10.63;;;12.80;99.90;;;;;;5025266;28;20621;-70
2021/11/01 12:29:38;;;;;;;13.30;10.10;;;12.80;99.90;;;;;;5024974;28;20605;-70
2021/11/01 12:32:09;;;;;;;12.17;10.20;;;12.80;99.90;;;;;;5025281;28;20205;-70
2021/11/01 12:34:40;;;;;;;10.63;9.53;;;12.80;99.90;;;;;;5024974;28;20233;-70
2021/11/01 12:37:14;;;;;;;11.93;10.40;;;12.90;99.90;;;;;;5025356;28;20296;-70
2021/11/01 12:39:42;;;;;;;10.90;9.80;;;12.90;99.90;;;;;;5024886;28;20224;-70
2021/11/01 12:42:23;;;;;;;11.60;10.40;;;12.90;99.90;;;;;;5025454;28;20654;-70
2021/11/01 12:58:39;;;;;;;12.60;10.80;;;12.90;99.90;;;;;;5024436;28;20192;-71
2021/11/01 13:01:07;;;;;;;12.43;10.57;;;12.90;99.90;;;;;;5025238;28;20201;-70
2021/11/01 13:03:34;;;;;;;13.80;10.27;;;12.80;99.90;;;;;;5024867;28;20209;-70
2021/11/01 13:06:05;;;;;;;12.33;10.83;;;12.80;99.90;;;;;;5024765;28;20424;-70
2021/11/01 13:08:37;;;;;;;13.60;11.37;;;12.80;99.90;;;;;;5024895;28;20280;-70
2021/11/01 13:11:14;;;;;;;15.13;11.37;;;12.80;99.90;;;;;;5024647;28;20281;-70
2021/11/01 13:14:03;;;;;;;11.67;10.30;;;12.80;99.90;;;;;;5024490;28;20592;-70
2021/11/01 13:19:17;;;;;;;11.07;10.00;;;12.80;99.90;;;;;;5024485;28;20219;-70
2021/11/01 13:21:52;;;;;;;10.93;9.27;;;12.80;99.90;;;;;;5024440;28;20237;-70
2021/11/01 13:24:21;;;;;;;14.07;10.00;;;12.80;99.90;;;;;;5024781;28;20188;-71
2021/11/01 13:27:06;;;;;;;12.03;10.03;;;12.80;99.90;;;;;;5024617;28;20205;-70
2021/11/01 13:38:01;;;;;;;10.50;9.40;;;12.80;99.90;;;;;;5026202;28;20789;-70
2021/11/01 13:40:34;;;;;;;11.07;8.47;;;12.80;99.90;;;;;;5027560;28;20613;-71
2021/11/01 13:43:00;;;;;;;12.00;8.60;;;12.70;99.90;;;;;;5027838;28;20217;-70
2021/11/01 13:45:28;;;;;;;9.63;7.47;;;12.70;99.90;;;;;;5027474;28;20209;-70
2021/11/01 13:47:57;;;;;;;9.83;7.53;;;12.70;99.90;;;;;;5027622;28;20204;-71
2021/11/01 13:50:26;;;;;;;8.80;7.83;;;12.70;99.90;;;;;;5027810;28;20261;-71
2021/11/01 13:53:04;;;;;;;8.60;7.70;;;12.70;99.90;;;;;;5027355;28;20667;-71
2021/11/01 13:55:41;;;;;;;8.00;7.20;;;12.70;99.90;;;;;;5027688;28;20276;-71
2021/11/01 13:58:19;;;;;;;5.97;5.27;;;12.70;99.90;;;;;;5027297;28;20196;-71
2021/11/01 14:00:54;;;;;;;7.07;5.00;;;12.70;99.90;;;;;;5027010;28;20244;-71
2021/11/01 14:03:42;;;;;;;4.73;4.27;;;12.60;99.90;;;;;;5027327;28;20731;-71
2021/11/01 14:11:48;;;;;;;3.80;3.50;;;12.60;99.90;;;;;;5040554;27;20263;-71
2021/11/01 14:14:38;;;;;;;5.10;4.43;;;12.60;99.90;;;;;;5039108;27;20265;-70
2021/11/01 14:17:27;;;;;;;7.03;3.80;;;12.60;99.90;;;;;;5038519;27;20198;-70
2021/11/01 14:20:23;;;;;;;3.40;3.10;;;12.60;99.90;;;;;;5035065;28;20598;-72
2021/11/01 14:28:33;;;;;;;3.57;3.17;;;12.60;99.90;;;;;;5043274;28;20215;-71
2021/11/01 14:31:28;;;;;;;6.50;3.53;;;12.50;99.90;;;;;;5043370;28;20204;-71
2021/11/01 14:34:24;;;;;;;4.23;3.37;;;12.50;99.90;;;;;;5042925;28;20288;-71
2021/11/01 15:02:08;;;;;;;2.70;2.00;;;12.50;99.90;;;;;;5025427;28;20266;-71
2021/11/01 15:18:33;;;;;;;3.23;1.77;;;12.40;99.90;;;;;;5042058;28;20291;-72
2021/11/01 15:21:11;;;;;;;3.93;2.17;;;12.40;99.90;;;;;;5043334;28;20226;-72
2021/11/01 15:23:53;;;;;;;2.60;1.63;;;12.40;99.90;;;;;;5042173;28;20601;-72
2021/11/01 15:29:19;;;;;;;2.60;1.43;;;12.40;99.90;;;;;;5041607;28;20204;-73
2021/11/01 15:37:54;;;;;;;2.67;1.90;;;12.30;99.90;;;;;;5037811;28;20224;-72
2021/11/01 15:40:35;;;;;;;3.57;2.13;;;12.30;99.90;;;;;;5041944;28;20761;-72
2021/11/01 16:18:37;;;;;;;3.33;3.03;;;12.20;99.90;;;;;;5040340;28;20252;-74
2021/11/01 16:21:04;;;;;;;6.07;3.30;;;12.20;99.90;;;;;;5041983;28;20912;-74
2021/11/01 16:23:35;;;;;;;4.37;2.70;;;12.20;99.90;;;;;;5040793;28;20215;-72
2021/11/01 16:26:11;;;;;;;3.33;3.03;;;12.20;99.90;;;;;;5040720;28;20193;-72
2021/11/01 16:28:39;;;;;;;4.40;3.00;;;12.20;99.90;;;;;;5041596;27;20196;-72
2021/11/01 16:31:22;;;;;;;3.60;3.27;;;12.20;99.90;;;;;;5041865;27;20208;-72
2021/11/01 16:33:54;;;;;;;3.67;3.17;;;12.20;99.90;;;;;;5041263;27;20717;-72
2021/11/01 16:36:29;;;;;;;3.40;3.10;;;12.20;99.90;;;;;;5041442;27;20227;-72
2021/11/01 16:38:56;;;;;;;3.43;3.13;;;12.20;99.90;;;;;;5041981;28;20608;-72
2021/11/01 16:41:25;;;;;;;3.57;3.27;;;12.20;99.90;;;;;;5041540;28;20235;-72
2021/11/01 16:43:53;;;;;;;3.13;2.93;;;12.20;99.90;;;;;;5040359;28;20256;-72
2021/11/01 16:46:19;;;;;;;4.53;3.47;;;12.20;99.90;;;;;;5040530;28;20208;-72
2021/11/01 16:48:47;;;;;;;3.80;3.30;;;12.20;99.90;;;;;;5040336;28;20256;-72
2021/11/01 16:51:14;;;;;;;5.30;3.70;;;12.20;99.90;;;;;;5041042;28;20210;-72
2021/11/01 16:53:43;;;;;;;3.40;3.10;;;12.10;99.90;;;;;;5040067;28;20200;-72
2021/11/01 16:56:34;;;;;;;4.23;3.47;;;12.10;99.90;;;;;;5041179;28;21039;-72
2021/11/01 16:59:11;;;;;;;4.10;3.70;;;12.20;99.90;;;;;;5040245;28;20328;-72
2021/11/01 17:01:42;;;;;;;4.73;3.93;;;12.10;99.90;;;;;;5036402;28;20231;-72
2021/11/01 17:04:12;;;;;;;4.53;4.03;;;12.10;99.90;;;;;;5041743;28;20189;-75
2021/11/01 17:06:43;;;;;;;4.03;3.63;;;12.20;99.90;;;;;;5041598;28;20680;-75
2021/11/01 17:23:28;;;;;;;4.67;3.90;;;12.10;99.90;;;;;;5043279;28;20674;-72
2021/11/01 17:26:01;;;;;;;4.20;3.90;;;12.10;99.90;;;;;;5042152;28;20287;-72
2021/11/01 17:28:45;;;;;;;4.03;3.73;;;12.10;99.90;;;;;;5041778;28;20218;-72
2021/11/01 17:31:36;;;;;;;4.13;3.70;;;12.10;99.90;;;;;;5043176;28;20192;-72
2021/11/01 17:36:57;;;;;;;4.27;3.87;;;12.10;99.90;;;;;;5042867;28;20779;-72
2021/11/01 18:38:27;;;;;;;2.70;2.50;;;12.00;99.90;;;;;;5018965;28;20199;-72
2021/11/01 18:41:05;;;;;;;2.83;2.63;;;12.00;99.90;;;;;;5034236;28;20227;-72
2021/11/01 18:51:55;;;;;;;3.67;2.60;;;12.00;99.90;;;;;;5041863;28;20237;-72
2021/11/01 18:54:27;;;;;;;2.57;2.37;;;12.00;99.90;;;;;;5042235;28;20260;-72
2021/11/01 18:57:00;;;;;;;3.00;2.60;;;11.90;99.90;;;;;;5041756;28;20887;-72
2021/11/01 18:59:28;;;;;;;2.70;2.40;;;11.90;99.90;;;;;;5041216;28;20228;-73
2021/11/01 19:02:07;;;;;;;3.00;2.70;;;11.90;99.90;;;;;;5042616;28;20650;-72
2021/11/01 19:04:40;;;;;;;2.70;2.30;;;11.90;99.90;;;;;;5041654;28;20273;-72
2021/11/01 19:07:10;;;;;;;2.90;2.70;;;11.90;99.90;;;;;;5042124;28;20196;-72
2021/11/01 19:09:49;;;;;;;4.57;2.80;;;11.90;99.90;;;;;;5041721;28;21021;-72
2021/11/01 20:05:09;;;;;;;3.77;2.60;;;11.80;99.90;;;;;;5042638;28;20198;-72
2021/11/01 20:13:22;;;;;;;4.50;2.93;;;11.70;99.90;;;;;;5042122;28;20211;-72
2021/11/01 20:16:12;;;;;;;2.90;2.70;;;11.70;99.90;;;;;;5042615;28;20204;-72
2021/11/01 21:25:31;;;;;;;3.20;2.97;;;11.50;99.90;;;;;;5027659;28;20204;-75
2021/11/01 21:27:58;;;;;;;2.90;2.70;;;11.50;99.90;;;;;;5028500;28;20217;-74
2021/11/01 21:30:30;;;;;;;4.47;2.90;;;11.50;99.90;;;;;;5027258;28;20319;-74
2021/11/01 21:32:56;;;;;;;3.00;2.70;;;11.50;99.90;;;;;;5028140;28;20224;-74
2021/11/01 21:35:28;;;;;;;3.00;2.80;;;11.50;99.90;;;;;;5027852;28;20774;-75
2021/11/01 21:37:57;;;;;;;3.00;2.80;;;11.50;99.90;;;;;;5027870;28;20199;-75
2021/11/01 21:40:23;;;;;;;3.17;2.87;;;11.50;99.90;;;;;;5028190;28;20236;-74
2021/11/01 21:42:52;;;;;;;4.63;2.90;;;11.50;99.90;;;;;;5027876;28;20238;-75